1 Minute Report
Date Time Wind Direction Wind Speed Wind Gust Wind Variable Altimeter Temperature Dewpoint Relative Humidity Visibility Ceiling Precip Present Weather Density Alt Wind Chill Heat Index
16/04/2006:1035009N/AN/A30.0152(F), 11(C)46(F), 8(C)82%7SCT004 BKN033 OVC040N/AN/AN/A49 FN/A4620
16/04/2006:0536010N/AN/A30.0152(F), 11(C)46(F), 8(C)82%7SCT004 BKN035 OVC040N/AN/AN/A49 FN/A4615
16/04/2006:0036011N/AN/A30.0152(F), 11(C)46(F), 8(C)82%7BKN004 BKN032 OVC040N/AN/AN/A48 FN/A4610
16/04/2005:5536013N/AN/A30.0252(F), 11(C)46(F), 8(C)82%7BKN004 OVC032N/AN/AN/A48 FN/A4605
16/04/2005:5035012N/AN/A30.0252(F), 11(C)46(F), 8(C)82%7BKN004 OVC032N/AN/AN/A48 FN/A4600
16/04/2005:4534013N/AN/A30.0252(F), 11(C)46(F), 8(C)82%7BKN004 OVC032N/AN/AN/A48 FN/A4595
16/04/2005:4034009N/AN/A30.0252(F), 11(C)46(F), 8(C)82%7BKN004 OVC032N/AN/AN/A49 FN/A4590
16/04/2005:3536010N/AN/A30.0252(F), 11(C)46(F), 8(C)82%7BKN004 OVC034N/AN/AN/A49 FN/A4585
16/04/2005:3001011N/AN/A30.0252(F), 11(C)46(F), 8(C)82%6BKN004 OVC034N/AN/AN/A48 FN/A4580
16/04/2005:2501010N/AN/A30.0252(F), 11(C)46(F), 8(C)82%7BKN004 OVC034N/AN/AN/A49 FN/A4575
16/04/2005:2036010N/AN/A30.0252(F), 11(C)46(F), 8(C)82%8SCT004 OVC034N/AN/AN/A49 FN/A4570
16/04/2005:1536012N/AN/A30.0352(F), 11(C)46(F), 8(C)82%8FEW004 BKN034 OVC045N/AN/AN/A48 FN/A4565
16/04/2005:1036010N/AN/A30.0352(F), 11(C)46(F), 8(C)82%8BKN034 OVC045N/AN/AN/A49 FN/A4560
16/04/2005:0536010N/AN/A30.0352(F), 11(C)46(F), 8(C)82%8BKN034 BKN040 OVC045N/AN/AN/A49 FN/A4555
16/04/2005:0001010N/AN/A30.0352(F), 11(C)46(F), 8(C)82%9FEW027 BKN036 OVC045N/AN/AN/A49 FN/A4550
16/04/2004:5501010N/AN/A30.0452(F), 11(C)46(F), 8(C)82%10+FEW018 SCT027 BKN036N/AN/AN/A49 FN/A4545
16/04/2004:5001010N/AN/A30.0452(F), 11(C)46(F), 8(C)82%10FEW018 SCT027 BKN034N/AN/AN/A49 FN/A4540
16/04/2004:4501009N/AN/A30.0452(F), 11(C)46(F), 8(C)82%10FEW018 SCT027 BKN032N/AN/AN/A49 FN/A4535
16/04/2004:4001011N/AN/A30.0452(F), 11(C)46(F), 8(C)82%10FEW018 BKN030 OVC047N/AN/AN/A48 FN/A4530
16/04/2004:3536011N/AN/A30.0452(F), 11(C)46(F), 8(C)82%10+SCT018 BKN027 OVC032N/AN/AN/A48 FN/A4525
16/04/2004:3036010N/AN/A30.0552(F), 11(C)46(F), 8(C)82%10+SCT018 BKN025 OVC034N/AN/AN/A49 FN/A4520
16/04/2004:2536010N/AN/A30.0552(F), 11(C)46(F), 8(C)82%10+SCT021 OVC032N/AN/AN/A49 FN/A4515
16/04/2004:2036010N/AN/A30.0552(F), 11(C)46(F), 8(C)82%10+FEW014 SCT022 OVC028N/AN/AN/A49 FN/A4510
16/04/2004:1535011N/AN/A30.0552(F), 11(C)46(F), 8(C)82%10+SCT014 BKN022 OVC026N/AN/AN/A48 FN/A4505
16/04/2004:1035012N/AN/A30.0552(F), 11(C)46(F), 8(C)82%10+SCT014 OVC022N/AN/AN/A48 FN/A4500
16/04/2004:0536012N/AN/A30.0552(F), 11(C)46(F), 8(C)82%10+FEW005 BKN014 OVC022N/AN/AN/A48 FN/A4495
16/04/2004:0036014N/AN/A30.0552(F), 11(C)46(F), 8(C)82%10+FEW005 BKN014 OVC022N/AN/AN/A47 FN/A4490
16/04/2003:5535014N/AN/A30.0652(F), 11(C)46(F), 8(C)82%10FEW005 BKN014 OVC018N/AN/AN/A47 FN/A4485
16/04/2003:5034013 17N/A30.0652(F), 11(C)46(F), 8(C)82%9FEW005 BKN014 OVC018N/AN/AN/A48 FN/A4480
16/04/2003:4533013 17N/A30.0652(F), 11(C)46(F), 8(C)82%9SCT005 BKN012 OVC041N/AN/AN/A48 FN/A4475
16/04/2003:4032012 17N/A30.0652(F), 11(C)46(F), 8(C)82%9SCT005 BKN016 OVC039N/AN/AN/A48 FN/A4470
16/04/2003:3533013 17N/A30.0652(F), 11(C)46(F), 8(C)82%8FEW005 SCT012 BKN016N/AN/AN/A48 FN/A4465
16/04/2003:3035013 17N/A30.0652(F), 11(C)46(F), 8(C)82%9SCT005 BKN027 OVC043N/AN/AN/A48 FN/A4460
16/04/2003:2534012 16N/A30.0652(F), 11(C)46(F), 8(C)82%10SCT005 BKN014 OVC038N/AN/AN/A48 FN/A4455
16/04/2003:2033013 16N/A30.0652(F), 11(C)46(F), 8(C)82%9SCT006 BKN014 OVC038N/AN/AN/A48 FN/A4450
16/04/2003:1534013N/AN/A30.0652(F), 11(C)46(F), 8(C)82%10BKN014 BKN027 OVC038N/AN/AN/A48 FN/A4445
16/04/2003:1033013N/AN/A30.0752(F), 11(C)46(F), 8(C)82%9BKN014 BKN027 OVC038N/AN/AN/A48 FN/A4440
16/04/2003:0533013N/AN/A30.0754(F), 12(C)46(F), 8(C)77%9BKN014 BKN027 OVC038N/AN/AN/A50 FN/A4435
16/04/2003:0032013N/AN/A30.0754(F), 12(C)46(F), 8(C)77%10FEW009 OVC014N/AN/AN/A50 FN/A4430
16/04/2002:5532012N/AN/A30.0754(F), 12(C)46(F), 8(C)77%10OVC012N/AN/AN/A50 FN/A4425
16/04/2002:5032014N/AN/A30.0754(F), 12(C)46(F), 8(C)77%10OVC012N/AN/AN/A50 FN/A4420
16/04/2002:4532013 17N/A30.0754(F), 12(C)46(F), 8(C)77%10+OVC012N/AN/AN/A50 FN/A4415
16/04/2002:4032012 19N/A30.0654(F), 12(C)46(F), 8(C)77%10+OVC012N/AN/AN/A50 FN/A4410
16/04/2002:3532016 19N/A30.0654(F), 12(C)48(F), 9(C)82%10OVC012N/AN/AN/A50 FN/A4405
16/04/2002:3030010N/AN/A30.0654(F), 12(C)48(F), 9(C)82%9OVC012N/AN/AN/A51 FN/A4400
16/04/2002:2531010N/AN/A30.0654(F), 12(C)48(F), 9(C)82%8BKN012 OVC017N/AN/AN/A51 FN/A4395
16/04/2002:2031010N/AN/A30.0655(F), 13(C)48(F), 9(C)77%8BKN012 BKN017 OVC036N/AN/AN/A52 FN/A4390
16/04/2002:1530011N/AN/A30.0655(F), 13(C)50(F), 10(C)82%9SCT012 BKN017 OVC036N/AN/AN/A52 FN/A4385
16/04/2002:1030009N/AN/A30.0655(F), 13(C)50(F), 10(C)82%10FEW008 SCT012 BKN017N/AN/AN/A53 FN/A4380
16/04/2002:0530013N/AN/A30.0657(F), 14(C)50(F), 10(C)77%10FEW008 SCT017 OVC037N/AN/AN/A54 FN/A4375
16/04/2002:0029012N/AN/A30.0657(F), 14(C)52(F), 11(C)82%8FEW017 OVC037N/AN/AN/A54 FN/A4370
16/04/2001:5500000N/AN/A30.0657(F), 14(C)52(F), 11(C)82%5OVC037N/AN/AN/A57 FN/A4365
16/04/2001:5000000N/AN/A30.0657(F), 14(C)52(F), 11(C)82%4BKN035 OVC042N/AN/AN/A57 FN/A4360
16/04/2001:4500000N/AN/A30.0657(F), 14(C)52(F), 11(C)82%4BKN037 OVC042N/AN/AN/A57 FN/A4355
16/04/2001:4008003N/AN/A30.0657(F), 14(C)52(F), 11(C)82%5FEW021 BKN037 OVC042N/AN/AN/A57 FN/A4350
16/04/2001:3508003N/AN/A30.0659(F), 15(C)52(F), 11(C)77%5FEW021 BKN035 OVC043N/AN/AN/A59 FN/A4345
16/04/2001:3007003N/AN/A30.0659(F), 15(C)52(F), 11(C)77%5SCT026 BKN035 OVC043N/AN/AN/A59 FN/A4340
16/04/2001:2508004N/AN/A30.0659(F), 15(C)52(F), 11(C)77%5FEW018 SCT026 BKN035N/AN/AN/A59 FN/A4335
16/04/2001:2009004N/AN/A30.0661(F), 16(C)52(F), 11(C)72%7SCT022 BKN031 BKN039N/AN/AN/A61 FN/A4330
16/04/2001:1509005N/AN/A30.0661(F), 16(C)52(F), 11(C)72%10SCT025 BKN032 OVC047N/AN/AN/A61 FN/A4325
16/04/2001:1010005N/AN/A30.0661(F), 16(C)52(F), 11(C)72%10+FEW025 BKN032 BKN047N/AN/AN/A61 FN/A4320
16/04/2001:0509005N/AN/A30.0661(F), 16(C)52(F), 11(C)72%10+FEW027 BKN034 BKN047N/AN/AN/A61 FN/A4315
16/04/2001:0009005N/AN/A30.0661(F), 16(C)52(F), 11(C)72%10+BKN034 BKN042 OVC065N/AN/AN/A61 FN/A4310
16/04/2000:5508005N/AN/A30.0561(F), 16(C)52(F), 11(C)72%10+BKN034 BKN042 OVC065N/AN/AN/A61 FN/A4305
16/04/2000:5008006N/AN/A30.0561(F), 16(C)52(F), 11(C)72%10+BKN034 BKN042 OVC050N/AN/AN/A61 FN/A4300
16/04/2000:4507006N/AN/A30.0561(F), 16(C)52(F), 11(C)72%10+BKN038 OVC044N/AN/AN/A61 FN/A4295
16/04/2000:4007006N/AN/A30.0561(F), 16(C)52(F), 11(C)72%10+BKN039 OVC047N/AN/AN/A61 FN/A4290
16/04/2000:3508005N/AN/A30.0663(F), 17(C)52(F), 11(C)68%10+SCT035 OVC042N/AN/AN/A63 FN/A4285
16/04/2000:3009005N/AN/A30.0663(F), 17(C)52(F), 11(C)68%10+OVC040N/AN/AN/A63 FN/A4280
16/04/2000:2510006N/AN/A30.0663(F), 17(C)52(F), 11(C)68%10+OVC040N/AN/AN/A63 FN/A4275
16/04/2000:2009005N/AN/A30.0663(F), 17(C)52(F), 11(C)68%10+OVC042N/AN/AN/A63 FN/A4270
16/04/2000:1509005N/AN/A30.0563(F), 17(C)52(F), 11(C)68%10+BKN042N/AN/AN/A63 FN/A4265
16/04/2000:1009006N/AN/A30.0563(F), 17(C)52(F), 11(C)68%10+BKN042 BKN120N/AN/AN/A63 FN/A4260
16/04/2000:0510006N/AN/A30.0563(F), 17(C)52(F), 11(C)68%10+BKN042 BKN095 BKN120N/AN/AN/A63 FN/A4255
16/04/2000:0010007N/AN/A30.0563(F), 17(C)52(F), 11(C)68%10+SCT042 BKN095 BKN120N/AN/AN/A63 FN/A4250
16/04/1923:5509007N/AN/A30.0563(F), 17(C)52(F), 11(C)68%10+SCT042 SCT095 BKN120N/AN/AN/A63 FN/A4245
16/04/1923:5009007N/AN/A30.0563(F), 17(C)52(F), 11(C)68%10+FEW075 SCT095 BKN120N/AN/AN/A63 FN/A4240
16/04/1923:4508007N/AN/A30.0563(F), 17(C)52(F), 11(C)68%10+FEW043 FEW075 BKN095N/AN/AN/A63 FN/A4235
16/04/1923:4010008N/AN/A30.0663(F), 17(C)52(F), 11(C)68%10+FEW043 FEW075 BKN095N/AN/AN/A63 FN/A4230
16/04/1923:3510008N/AN/A30.0663(F), 17(C)52(F), 11(C)68%10+FEW043 SCT075 BKN095N/AN/AN/A63 FN/A4225
16/04/1923:3009007N/AN/A30.0664(F), 18(C)52(F), 11(C)64%10+FEW043 SCT075 BKN095N/AN/AN/A64 FN/A4220
16/04/1923:2510008N/AN/A30.0664(F), 18(C)52(F), 11(C)64%10+SCT043 BKN075 BKN095N/AN/AN/A64 FN/A4215
16/04/1923:2011008N/AN/A30.0664(F), 18(C)52(F), 11(C)64%10+SCT045 SCT050 SCT090N/AN/AN/A64 FN/A4210
16/04/1923:1510008N/AN/A30.0664(F), 18(C)52(F), 11(C)64%10+SCT045 SCT050 SCT090N/AN/AN/A64 FN/A4205
16/04/1923:1010007N/AN/A30.0764(F), 18(C)52(F), 11(C)64%10+SCT045 SCT050N/AN/AN/A64 FN/A4200
16/04/1923:0509006N/AN/A30.0764(F), 18(C)52(F), 11(C)64%10+BKN043 BKN050N/AN/AN/A64 FN/A4195
16/04/1923:0010007N/AN/A30.0764(F), 18(C)52(F), 11(C)64%10+FEW030 BKN043 BKN050N/AN/AN/A64 FN/A4190
16/04/1922:5510007N/AN/A30.0764(F), 18(C)52(F), 11(C)64%10+FEW030 BKN043 BKN050N/AN/AN/A64 FN/A4185
16/04/1922:5011005N/AN/A30.0764(F), 18(C)52(F), 11(C)64%10+FEW030 BKN043 BKN050N/AN/AN/A65 FN/A4180
16/04/1922:4511008N/AN/A30.0764(F), 18(C)52(F), 11(C)64%10+FEW030 SCT043 BKN048N/AN/AN/A64 FN/A4175
16/04/1922:4011006N/AN/A30.0764(F), 18(C)50(F), 10(C)60%10+SCT041 SCT048N/AN/AN/A64 FN/A4170
16/04/1922:3512006N/AN/A30.0864(F), 18(C)52(F), 11(C)64%10+FEW041N/AN/AN/A64 FN/A4165
16/04/1922:3009007N/AN/A30.0864(F), 18(C)52(F), 11(C)64%10+CLRN/AN/AN/A64 FN/A4160
16/04/1922:2511006N/AN/A30.0764(F), 18(C)52(F), 11(C)64%10+CLRN/AN/AN/A64 FN/A4155
16/04/1922:2010008N/AN/A30.0766(F), 19(C)52(F), 11(C)60%10+FEW035N/AN/AN/A66 FN/A4150
16/04/1922:1511010N/AN/A30.0766(F), 19(C)52(F), 11(C)60%10+FEW035N/AN/AN/A66 FN/A4145
16/04/1922:1009007N/AN/A30.0766(F), 19(C)52(F), 11(C)60%10+FEW035 FEW120N/AN/AN/A66 FN/A4140
16/04/1922:0509006N/AN/A30.0866(F), 19(C)52(F), 11(C)60%10+FEW120N/AN/AN/A67 FN/A4135
16/04/1922:0010007N/AN/A30.0866(F), 19(C)52(F), 11(C)60%10+CLRN/AN/AN/A66 FN/A4130
16/04/1921:5509007N/AN/A30.0864(F), 18(C)52(F), 11(C)64%10+FEW043N/AN/AN/A64 FN/A4125
16/04/1921:5009007N/AN/A30.0866(F), 19(C)52(F), 11(C)60%10+FEW043 SCT050N/AN/AN/A66 FN/A4120
16/04/1921:4509008N/AN/A30.0866(F), 19(C)52(F), 11(C)60%10+FEW039 SCT046N/AN/AN/A66 FN/A4115
16/04/1921:4010007N/AN/A30.0966(F), 19(C)50(F), 10(C)56%10+FEW039 SCT046N/AN/AN/A66 FN/A4110
16/04/1921:3509008N/AN/A30.0966(F), 19(C)48(F), 9(C)52%10+SCT042 BKN050N/AN/AN/A66 FN/A4105
16/04/1921:3008007N/AN/A30.0966(F), 19(C)50(F), 10(C)56%10+SCT039 BKN047N/AN/AN/A66 FN/A4100
16/04/1921:2511009N/AN/A30.0966(F), 19(C)52(F), 11(C)60%10+SCT039 BKN047 BKN050N/AN/AN/A66 FN/A4095
16/04/1921:2012008N/AN/A30.1066(F), 19(C)52(F), 11(C)60%10+SCT039 BKN047N/AN/AN/A66 FN/A4090
16/04/1921:1509008N/A060V12030.1066(F), 19(C)50(F), 10(C)56%10+SCT039 SCT047N/AN/AN/A66 FN/A4085
16/04/1921:1010006N/AN/A30.1066(F), 19(C)50(F), 10(C)56%10+SCT037 BKN047N/AN/AN/A67 FN/A4080
16/04/1921:0507006N/AN/A30.1066(F), 19(C)50(F), 10(C)56%10+SCT037 BKN047N/AN/AN/A67 FN/A4075
16/04/1921:0009008N/AN/A30.1166(F), 19(C)52(F), 11(C)60%10+SCT037 SCT045N/AN/AN/A66 FN/A4070
16/04/1920:5509008N/AN/A30.1166(F), 19(C)50(F), 10(C)56%10+SCT037 SCT045N/AN/AN/A66 FN/A4065
16/04/1920:5008007N/AN/A30.1166(F), 19(C)52(F), 11(C)60%10+SCT037 BKN046N/AN/AN/A66 FN/A4060
16/04/1920:4508008N/AN/A30.1166(F), 19(C)50(F), 10(C)56%10+SCT037 SCT046N/AN/AN/A66 FN/A4055
16/04/1920:4011007N/AN/A30.1166(F), 19(C)50(F), 10(C)56%10+SCT037 SCT047N/AN/AN/A66 FN/A4050
16/04/1920:3510006N/AN/A30.1166(F), 19(C)50(F), 10(C)56%10+SCT037 BKN047N/AN/AN/A67 FN/A4045
16/04/1920:3007008N/AN/A30.1266(F), 19(C)50(F), 10(C)56%10+SCT037 BKN047N/AN/AN/A66 FN/A4040
16/04/1920:2510006N/AN/A30.1266(F), 19(C)50(F), 10(C)56%10+SCT039 BKN047N/AN/AN/A67 FN/A4035
16/04/1920:2010009N/A050V12030.1266(F), 19(C)50(F), 10(C)56%10+SCT039N/AN/AN/A66 FN/A4030
16/04/1920:1505006N/AN/A30.1266(F), 19(C)50(F), 10(C)56%10+SCT037 SCT042N/AN/AN/A67 FN/A4025
16/04/1920:1008007N/AN/A30.1266(F), 19(C)50(F), 10(C)56%10+SCT037 SCT042N/AN/AN/A66 FN/A4020
16/04/1920:0510006N/AN/A30.1266(F), 19(C)50(F), 10(C)56%10+FEW037N/AN/AN/A67 FN/A4015
16/04/1920:0012007N/AN/A30.1264(F), 18(C)48(F), 9(C)56%10+SCT037 SCT042 SCT120N/AN/AN/A64 FN/A4010
16/04/1919:5508007N/AN/A30.1364(F), 18(C)48(F), 9(C)56%10+SCT037 BKN120N/AN/AN/A64 FN/A4005
16/04/1919:5008005N/AN/A30.1364(F), 18(C)50(F), 10(C)60%10+FEW033 SCT040 SCT120N/AN/AN/A65 FN/A4000
16/04/1919:4511008N/AN/A30.1464(F), 18(C)48(F), 9(C)56%10+FEW031 SCT038 SCT120N/AN/AN/A64 FN/A3995
16/04/1919:4009005N/AN/A30.1464(F), 18(C)48(F), 9(C)56%10+FEW033 SCT040 BKN120N/AN/AN/A65 FN/A3990
16/04/1919:3511009N/AN/A30.1464(F), 18(C)50(F), 10(C)60%10+SCT033 BKN040 BKN120N/AN/AN/A64 FN/A3985
16/04/1919:3009007N/AN/A30.1464(F), 18(C)50(F), 10(C)60%10+BKN033 BKN042N/AN/AN/A64 FN/A3980
16/04/1919:2507006N/AN/A30.1464(F), 18(C)50(F), 10(C)60%10+BKN033 BKN039N/AN/AN/A64 FN/A3975
16/04/1919:2010006N/AN/A30.1464(F), 18(C)50(F), 10(C)60%10+BKN033 BKN039N/AN/AN/A64 FN/A3970
16/04/1919:1511006N/AN/A30.1464(F), 18(C)50(F), 10(C)60%10+BKN031 BKN039N/AN/AN/A64 FN/A3965
16/04/1919:1011008N/AN/A30.1564(F), 18(C)50(F), 10(C)60%10+SCT031 BKN039N/AN/AN/A64 FN/A3960
16/04/1919:0509006N/AN/A30.1564(F), 18(C)50(F), 10(C)60%10+SCT033 SCT039N/AN/AN/A64 FN/A3955
16/04/1919:0010006N/AN/A30.1564(F), 18(C)50(F), 10(C)60%10+FEW033 SCT039N/AN/AN/A64 FN/A3950
16/04/1918:5510008N/A060V13030.1564(F), 18(C)50(F), 10(C)60%10+FEW030 SCT039N/AN/AN/A64 FN/A3945
16/04/1918:5005007N/AN/A30.1564(F), 18(C)48(F), 9(C)56%10+FEW030N/AN/AN/A64 FN/A3940
16/04/1918:4506007N/A030V09030.1564(F), 18(C)48(F), 9(C)56%10+FEW030N/AN/AN/A64 FN/A3935
16/04/1918:4004006N/AN/A30.1564(F), 18(C)48(F), 9(C)56%10+FEW030N/AN/AN/A64 FN/A3930
16/04/1918:3507008N/AN/A30.1663(F), 17(C)48(F), 9(C)59%10+SCT030N/AN/AN/A63 FN/A3925
16/04/1918:3005009N/A040V12030.1663(F), 17(C)48(F), 9(C)59%10+BKN030N/AN/AN/A62 FN/A3920
16/04/1918:2508007N/AN/A30.1663(F), 17(C)48(F), 9(C)59%10+BKN030N/AN/AN/A63 FN/A3915
16/04/1918:2006009N/AN/A30.1664(F), 18(C)50(F), 10(C)60%10+BKN030N/AN/AN/A64 FN/A3910
16/04/1918:1510007N/AN/A30.1664(F), 18(C)50(F), 10(C)60%10+BKN028N/AN/AN/A64 FN/A3905
16/04/1918:1007005N/AN/A30.1664(F), 18(C)50(F), 10(C)60%10+SCT028N/AN/AN/A65 FN/A3900
16/04/1918:0506008N/AN/A30.1664(F), 18(C)50(F), 10(C)60%10+SCT028N/AN/AN/A64 FN/A3895
16/04/1918:0009009N/AN/A30.1764(F), 18(C)48(F), 9(C)56%10+SCT028N/AN/AN/A64 FN/A3890
16/04/1917:5508008N/AN/A30.1764(F), 18(C)48(F), 9(C)56%10+SCT028N/AN/AN/A64 FN/A3885
16/04/1917:5006007N/A030V09030.1763(F), 17(C)48(F), 9(C)59%10+SCT028N/AN/AN/A63 FN/A3880
16/04/1917:4506007N/AN/A30.1763(F), 17(C)48(F), 9(C)59%10+FEW028N/AN/AN/A63 FN/A3875
16/04/1917:4007008N/A020V08030.1763(F), 17(C)48(F), 9(C)59%10+FEW028N/AN/AN/A63 FN/A3870
16/04/1917:3507008N/A020V10030.1863(F), 17(C)48(F), 9(C)59%10+FEW028N/AN/AN/A63 FN/A3865
16/04/1917:3008008N/A050V11030.1863(F), 17(C)48(F), 9(C)59%10+FEW028N/AN/AN/A63 FN/A3860
16/04/1917:2508008N/A040V11030.1863(F), 17(C)48(F), 9(C)59%10+FEW028N/AN/AN/A63 FN/A3855
16/04/1917:2004006N/AN/A30.1863(F), 17(C)48(F), 9(C)59%10+CLRN/AN/AN/A63 FN/A3850
16/04/1917:1505008N/AN/A30.1861(F), 16(C)48(F), 9(C)63%10+FEW026N/AN/AN/A60 FN/A3845
16/04/1917:1003009N/AN/A30.1961(F), 16(C)46(F), 8(C)59%10+FEW026N/AN/AN/A60 FN/A3840
16/04/1917:0503008N/AN/A30.1961(F), 16(C)46(F), 8(C)59%10+FEW026N/AN/AN/A60 FN/A3835
16/04/1917:0006007N/AN/A30.1961(F), 16(C)46(F), 8(C)59%10+FEW026N/AN/AN/A60 FN/A3830
16/04/1916:5505010N/AN/A30.1961(F), 16(C)46(F), 8(C)59%10+SCT026N/AN/AN/A60 FN/A3825
16/04/1916:5003006N/AN/A30.2061(F), 16(C)46(F), 8(C)59%10+SCT024 BKN034N/AN/AN/A61 FN/A3820
16/04/1916:4505005N/AN/A30.2061(F), 16(C)46(F), 8(C)59%10+SCT024 BKN034N/AN/AN/A61 FN/A3815
16/04/1916:4005006N/AN/A30.2161(F), 16(C)46(F), 8(C)59%10+BKN024 BKN034N/AN/AN/A61 FN/A3810
16/04/1916:3510004N/AN/A30.2161(F), 16(C)46(F), 8(C)59%10+BKN024 BKN034N/AN/AN/A61 FN/A3805
16/04/1916:3006005N/AN/A30.2161(F), 16(C)46(F), 8(C)59%10+BKN024 BKN034N/AN/AN/A61 FN/A3800
16/04/1916:2506006N/AN/A30.2159(F), 15(C)46(F), 8(C)63%10+BKN024N/AN/AN/A58 FN/A3795
16/04/1916:2036004N/AN/A30.2159(F), 15(C)46(F), 8(C)63%10+SCT022N/AN/AN/A59 FN/A3790
16/04/1916:1505007N/AN/A30.2157(F), 14(C)46(F), 8(C)67%10+SCT022N/AN/AN/A56 FN/A3785
16/04/1916:1003004N/AN/A30.2257(F), 14(C)46(F), 8(C)67%10+SCT022N/AN/AN/A57 FN/A3780
16/04/1916:0503008N/AN/A30.2157(F), 14(C)46(F), 8(C)67%10+SCT020N/AN/AN/A55 FN/A3775
16/04/1916:0001008N/AN/A30.2159(F), 15(C)46(F), 8(C)63%10+SCT020N/AN/AN/A58 FN/A3770
16/04/1915:5503008N/AN/A30.2159(F), 15(C)46(F), 8(C)63%10+BKN020N/AN/AN/A58 FN/A3765
16/04/1915:5002008N/AN/A30.2159(F), 15(C)46(F), 8(C)63%10+BKN020N/AN/AN/A58 FN/A3760
16/04/1915:4504008N/AN/A30.2157(F), 14(C)46(F), 8(C)67%10+BKN020N/AN/AN/A55 FN/A3755
16/04/1915:4036007N/AN/A30.2257(F), 14(C)46(F), 8(C)67%10+SCT020N/AN/AN/A56 FN/A3750
16/04/1915:3502006N/AN/A30.2257(F), 14(C)46(F), 8(C)67%10+SCT020N/AN/AN/A56 FN/A3745
16/04/1915:3002006N/AN/A30.2257(F), 14(C)46(F), 8(C)67%10+SCT020N/AN/AN/A56 FN/A3740
16/04/1915:2502007N/AN/A30.2357(F), 14(C)46(F), 8(C)67%10+SCT018N/AN/AN/A56 FN/A3735
16/04/1915:2002007N/AN/A30.2357(F), 14(C)46(F), 8(C)67%10+FEW016N/AN/AN/A56 FN/A3730
16/04/1915:1503008N/AN/A30.2357(F), 14(C)46(F), 8(C)67%10+CLRN/AN/AN/A55 FN/A3725
16/04/1915:1001007N/AN/A30.2357(F), 14(C)46(F), 8(C)67%10+CLRN/AN/AN/A56 FN/A3720
16/04/1915:0536009N/A320V02030.2355(F), 13(C)46(F), 8(C)72%10+CLRN/AN/AN/A53 FN/A3715
16/04/1915:0001008N/AN/A30.2455(F), 13(C)46(F), 8(C)72%10+CLRN/AN/AN/A53 FN/A3710
16/04/1914:5536007N/AN/A30.2455(F), 13(C)46(F), 8(C)72%10+CLRN/AN/AN/A53 FN/A3705
16/04/1914:5003006N/AN/A30.2455(F), 13(C)45(F), 7(C)67%10+CLRN/AN/AN/A54 FN/A3700
16/04/1914:4536005N/AN/A30.2455(F), 13(C)46(F), 8(C)72%10+CLRN/AN/AN/A54 FN/A3695
16/04/1914:4001006N/AN/A30.2455(F), 13(C)46(F), 8(C)72%10+CLRN/AN/AN/A54 FN/A3690
16/04/1914:3536006N/AN/A30.2455(F), 13(C)45(F), 7(C)67%10+CLRN/AN/AN/A54 FN/A3685
16/04/1914:3001008N/AN/A30.2355(F), 13(C)46(F), 8(C)72%10+CLRN/AN/AN/A53 FN/A3680
16/04/1914:2536008N/AN/A30.2355(F), 13(C)46(F), 8(C)72%10+CLRN/AN/AN/A53 FN/A3675
16/04/1914:2003007N/AN/A30.2454(F), 12(C)46(F), 8(C)77%10+CLRN/AN/AN/A52 FN/A3670
16/04/1914:1502006N/AN/A30.2454(F), 12(C)45(F), 7(C)71%10+CLRN/AN/AN/A52 FN/A3665
16/04/1914:1002006N/AN/A30.2454(F), 12(C)45(F), 7(C)71%10+CLRN/AN/AN/A52 FN/A3660
16/04/1914:0503007N/AN/A30.2454(F), 12(C)45(F), 7(C)71%10+CLRN/AN/AN/A52 FN/A3655
16/04/1914:0002008N/AN/A30.2454(F), 12(C)46(F), 8(C)77%10+CLRN/AN/AN/A52 FN/A3650
16/04/1913:5501010N/AN/A30.2352(F), 11(C)46(F), 8(C)82%10+CLRN/AN/AN/A49 FN/A3645
16/04/1913:5001008N/AN/A30.2252(F), 11(C)46(F), 8(C)82%10+CLRN/AN/AN/A49 FN/A3640
16/04/1913:4536011N/AN/A30.2252(F), 11(C)46(F), 8(C)82%10+CLRN/AN/AN/A48 FN/A3635
16/04/1913:4036009N/AN/A30.2252(F), 11(C)46(F), 8(C)82%10+CLRN/AN/AN/A49 FN/A3630
16/04/1913:3536008N/AN/A30.2252(F), 11(C)45(F), 7(C)76%10+CLRN/AN/AN/A49 FN/A3625
16/04/1913:3001009N/AN/A30.2350(F), 10(C)45(F), 7(C)82%10+CLRN/AN/AN/A46 FN/A3620
16/04/1913:2502007N/AN/A30.2350(F), 10(C)45(F), 7(C)82%10+CLRN/AN/AN/A47 FN/A3615
16/04/1913:2001006N/AN/A30.2348(F), 9(C)45(F), 7(C)87%10+CLRN/AN/AN/A45 FN/A3610
16/04/1913:1502005N/AN/A30.2348(F), 9(C)43(F), 6(C)81%10+CLRN/AN/AN/A46 FN/A3605
16/04/1913:1002005N/AN/A30.2448(F), 9(C)43(F), 6(C)81%10+CLRN/AN/AN/A46 FN/A3600
16/04/1913:0501005N/AN/A30.2348(F), 9(C)43(F), 6(C)81%10+CLRN/AN/AN/A46 FN/A3595
16/04/1913:0001005N/AN/A30.2346(F), 8(C)43(F), 6(C)87%10+CLRN/AN/AN/A44 FN/A3590
16/04/1912:5502004N/AN/A30.2346(F), 8(C)41(F), 5(C)81%10+CLRN/AN/AN/A46 FN/A3585
16/04/1912:5001004N/AN/A30.2345(F), 7(C)39(F), 4(C)81%10CLRN/AN/AN/A45 FN/A3580
16/04/1912:4501004N/AN/A30.2345(F), 7(C)39(F), 4(C)81%10CLRN/AN/AN/A45 FN/A3575
16/04/1912:4001003N/AN/A30.2345(F), 7(C)39(F), 4(C)81%10+CLRN/AN/AN/A45 FN/A3570
16/04/1912:3500000N/AN/A30.2345(F), 7(C)39(F), 4(C)81%10+CLRN/AN/AN/A45 FN/A3565
16/04/1912:3002003N/AN/A30.2345(F), 7(C)39(F), 4(C)81%10+CLRN/AN/AN/A45 FN/A3560
16/04/1912:2500000N/AN/A30.2345(F), 7(C)39(F), 4(C)81%10CLRN/AN/AN/A45 FN/A3555
16/04/1912:2000000N/AN/A30.2343(F), 6(C)37(F), 3(C)81%9CLRN/AN/AN/A43 FN/A3550
16/04/1912:1500000N/AN/A30.2243(F), 6(C)37(F), 3(C)81%9CLRN/AN/AN/A43 FN/A3545
16/04/1912:1000000N/AN/A30.2243(F), 6(C)37(F), 3(C)81%10CLRN/AN/AN/A43 FN/A3540
16/04/1912:0500000N/AN/A30.2143(F), 6(C)39(F), 4(C)87%9CLRN/AN/AN/A43 FN/A3535
16/04/1912:0036003N/AN/A30.2143(F), 6(C)37(F), 3(C)81%9CLRN/AN/AN/A43 FN/A3530
16/04/1911:5536003N/AN/A30.2143(F), 6(C)37(F), 3(C)81%9CLRN/AN/AN/A43 FN/A3525
16/04/1911:5035005N/AN/A30.2043(F), 6(C)37(F), 3(C)81%10CLRN/AN/AN/A40 FN/A3520
16/04/1911:4501005N/AN/A30.2043(F), 6(C)37(F), 3(C)81%9CLRN/AN/AN/A40 FN/A3515
16/04/1911:4002005N/AN/A30.2043(F), 6(C)37(F), 3(C)81%4CLRN/AN/AN/A40 FN/A3510
16/04/1911:3502004N/AN/A30.2143(F), 6(C)36(F), 2(C)75%1-1/2CLRN/AN/AN/A43 FN/A3505
16/04/1911:3001006N/AN/A30.2041(F), 5(C)36(F), 2(C)81%3/4VV005N/AN/AN/A37 FN/A3500
16/04/1911:2536006N/AN/A30.2043(F), 6(C)36(F), 2(C)75%3/4VV005N/AN/AN/A39 FN/A3495
16/04/1911:2035005N/AN/A30.2143(F), 6(C)37(F), 3(C)81%1CLRN/AN/AN/A40 FN/A3490
16/04/1911:1535006N/AN/A30.2143(F), 6(C)37(F), 3(C)81%1CLRN/AN/AN/A39 FN/A3485
16/04/1911:1036006N/AN/A30.2141(F), 5(C)36(F), 2(C)81%1/2VV005N/AN/AN/A37 FN/A3480
16/04/1911:0536005N/AN/A30.2141(F), 5(C)36(F), 2(C)81%1/2VV005N/AN/AN/A38 FN/A3475
16/04/1911:0036005N/AN/A30.2141(F), 5(C)36(F), 2(C)81%1/2VV005N/AN/AN/A38 FN/A3470
16/04/1910:5535006N/AN/A30.2041(F), 5(C)36(F), 2(C)81%1/2VV005N/AN/AN/A37 FN/A3465
16/04/1910:5035007N/AN/A30.2041(F), 5(C)36(F), 2(C)81%1/2VV005N/AN/AN/A36 FN/A3460
16/04/1910:4535006N/AN/A30.2043(F), 6(C)37(F), 3(C)81%1/2VV005N/AN/AN/A39 FN/A3455
16/04/1910:4035006N/AN/A30.2043(F), 6(C)37(F), 3(C)81%1/2VV005N/AN/AN/A39 FN/A3450
16/04/1910:3501005N/AN/A30.2041(F), 5(C)36(F), 2(C)81%1/2VV005N/AN/AN/A38 FN/A3445
16/04/1910:3035005N/AN/A30.2041(F), 5(C)36(F), 2(C)81%1/2VV005N/AN/AN/A38 FN/A3440
16/04/1910:2534005N/AN/A30.2043(F), 6(C)37(F), 3(C)81%1/2VV005N/AN/AN/A40 FN/A3435
16/04/1910:2033004N/AN/A30.2041(F), 5(C)36(F), 2(C)81%1-3/4CLRN/AN/AN/A41 FN/A3430
16/04/1910:1500000N/AN/A30.2143(F), 6(C)36(F), 2(C)75%9CLRN/AN/AN/A43 FN/A3425
16/04/1910:1000000N/AN/A30.2143(F), 6(C)36(F), 2(C)75%8CLRN/AN/AN/A43 FN/A3420
16/04/1910:0500000N/AN/A30.2143(F), 6(C)37(F), 3(C)81%8CLRN/AN/AN/A43 FN/A3415
16/04/1910:0031003N/AN/A30.2143(F), 6(C)37(F), 3(C)81%8CLRN/AN/AN/A43 FN/A3410
16/04/1909:5531004N/AN/A30.2143(F), 6(C)37(F), 3(C)81%5CLRN/AN/AN/A43 FN/A3405
16/04/1909:5031004N/AN/A30.2145(F), 7(C)39(F), 4(C)81%3CLRN/AN/AN/A45 FN/A3400
16/04/1909:4531005N/AN/A30.2145(F), 7(C)37(F), 3(C)76%5CLRN/AN/AN/A42 FN/A3395
16/04/1909:4000000N/AN/A30.2145(F), 7(C)37(F), 3(C)76%10+CLRN/AN/AN/A45 FN/A3390
16/04/1909:3500000N/AN/A30.2245(F), 7(C)39(F), 4(C)81%10+CLRN/AN/AN/A45 FN/A3385
16/04/1909:3026003N/AN/A30.2245(F), 7(C)37(F), 3(C)76%10+CLRN/AN/AN/A45 FN/A3380
16/04/1909:2526003N/AN/A30.2245(F), 7(C)37(F), 3(C)76%10+CLRN/AN/AN/A45 FN/A3375
16/04/1909:2027004N/AN/A30.2245(F), 7(C)37(F), 3(C)76%10+CLRN/AN/AN/A45 FN/A3370
16/04/1909:1528004N/AN/A30.2245(F), 7(C)37(F), 3(C)76%10+CLRN/AN/AN/A45 FN/A3365
16/04/1909:1000000N/AN/A30.2145(F), 7(C)39(F), 4(C)81%10+CLRN/AN/AN/A45 FN/A3360
16/04/1909:0500000N/AN/A30.2146(F), 8(C)39(F), 4(C)76%10+CLRN/AN/AN/A46 FN/A3355
16/04/1909:0000000N/AN/A30.2146(F), 8(C)39(F), 4(C)76%10+CLRN/AN/AN/A46 FN/A3350
16/04/1908:5500000N/AN/A30.2146(F), 8(C)39(F), 4(C)76%10+CLRN/AN/AN/A46 FN/A3345
16/04/1908:5000000N/AN/A30.2146(F), 8(C)41(F), 5(C)81%10+CLRN/AN/AN/A46 FN/A3340
16/04/1908:4500000N/AN/A30.2148(F), 9(C)43(F), 6(C)81%10+CLRN/AN/AN/A48 FN/A3335
16/04/1908:4000000N/AN/A30.2148(F), 9(C)43(F), 6(C)81%10+CLRN/AN/AN/A48 FN/A3330
16/04/1908:3503003N/AN/A30.2048(F), 9(C)43(F), 6(C)81%10+CLRN/AN/AN/A48 FN/A3325
16/04/1908:3002003N/AN/A30.2048(F), 9(C)41(F), 5(C)76%10+CLRN/AN/AN/A48 FN/A3320
16/04/1908:2502004N/AN/A30.2048(F), 9(C)41(F), 5(C)76%10+CLRN/AN/AN/A48 FN/A3315
16/04/1908:2003005N/AN/A30.2046(F), 8(C)43(F), 6(C)87%10+CLRN/AN/AN/A44 FN/A3310
16/04/1908:1503004N/AN/A30.2046(F), 8(C)43(F), 6(C)87%10+CLRN/AN/AN/A46 FN/A3305
16/04/1908:1003005N/AN/A30.2046(F), 8(C)41(F), 5(C)81%10+CLRN/AN/AN/A44 FN/A3300
16/04/1908:0502005N/AN/A30.2046(F), 8(C)43(F), 6(C)87%10+CLRN/AN/AN/A44 FN/A3295
16/04/1908:0003004N/AN/A30.2146(F), 8(C)41(F), 5(C)81%10+CLRN/AN/AN/A46 FN/A3290
16/04/1907:5501003N/AN/A30.2146(F), 8(C)41(F), 5(C)81%10+CLRN/AN/AN/A46 FN/A3285
16/04/1907:5001004N/AN/A30.2246(F), 8(C)41(F), 5(C)81%10+CLRN/AN/AN/A46 FN/A3280
16/04/1907:4502004N/AN/A30.2246(F), 8(C)43(F), 6(C)87%10+CLRN/AN/AN/A46 FN/A3275
16/04/1907:4002003N/AN/A30.2246(F), 8(C)41(F), 5(C)81%10+CLRN/AN/AN/A46 FN/A3270
16/04/1907:3502003N/AN/A30.2246(F), 8(C)41(F), 5(C)81%10+CLRN/AN/AN/A46 FN/A3265
16/04/1907:3002003N/AN/A30.2246(F), 8(C)41(F), 5(C)81%9CLRN/AN/AN/A46 FN/A3260
16/04/1907:2502004N/AN/A30.2246(F), 8(C)41(F), 5(C)81%8CLRN/AN/AN/A46 FN/A3255
16/04/1907:2036004N/AN/A30.2245(F), 7(C)39(F), 4(C)81%7CLRN/AN/AN/A45 FN/A3250
16/04/1907:1535003N/AN/A30.2345(F), 7(C)39(F), 4(C)81%5CLRN/AN/AN/A45 FN/A3245
16/04/1907:1035005N/AN/A30.2345(F), 7(C)39(F), 4(C)81%5CLRN/AN/AN/A42 FN/A3240
16/04/1907:0534005N/AN/A30.2346(F), 8(C)41(F), 5(C)81%10CLRN/AN/AN/A44 FN/A3235
16/04/1907:0034004N/AN/A30.2346(F), 8(C)41(F), 5(C)81%10+CLRN/AN/AN/A46 FN/A3230
16/04/1906:5535003N/AN/A30.2446(F), 8(C)41(F), 5(C)81%10+CLRN/AN/AN/A46 FN/A3225
16/04/1906:5035003N/AN/A30.2446(F), 8(C)41(F), 5(C)81%10+CLRN/AN/AN/A46 FN/A3220
16/04/1906:4536003N/AN/A30.2446(F), 8(C)41(F), 5(C)81%10+CLRN/AN/AN/A46 FN/A3215
16/04/1906:4036004N/AN/A30.2446(F), 8(C)41(F), 5(C)81%10+CLRN/AN/AN/A46 FN/A3210
16/04/1906:3536004N/AN/A30.2448(F), 9(C)43(F), 6(C)81%10+CLRN/AN/AN/A48 FN/A3205
16/04/1906:3036004N/AN/A30.2448(F), 9(C)43(F), 6(C)81%10+CLRN/AN/AN/A48 FN/A3200
16/04/1906:2502004N/AN/A30.2448(F), 9(C)43(F), 6(C)81%10+CLRN/AN/AN/A48 FN/A3195
16/04/1906:2002004N/AN/A30.2448(F), 9(C)43(F), 6(C)81%10+CLRN/AN/AN/A48 FN/A3190
16/04/1906:1502004N/AN/A30.2448(F), 9(C)43(F), 6(C)81%10+CLRN/AN/AN/A48 FN/A3185
16/04/1906:1003005N/AN/A30.2446(F), 8(C)43(F), 6(C)87%10+CLRN/AN/AN/A44 FN/A3180
16/04/1906:0502005N/AN/A30.2446(F), 8(C)43(F), 6(C)87%10+CLRN/AN/AN/A44 FN/A3175
16/04/1906:0001005N/AN/A30.2446(F), 8(C)41(F), 5(C)81%10+CLRN/AN/AN/A44 FN/A3170
16/04/1905:5501005N/AN/A30.2446(F), 8(C)41(F), 5(C)81%10+CLRN/AN/AN/A44 FN/A3165
16/04/1905:5036005N/AN/A30.2448(F), 9(C)43(F), 6(C)81%10+CLRN/AN/AN/A46 FN/A3160
16/04/1905:4501005N/AN/A30.2548(F), 9(C)43(F), 6(C)81%10+CLRN/AN/AN/A46 FN/A3155
16/04/1905:4001005N/AN/A30.2548(F), 9(C)43(F), 6(C)81%10+CLRN/AN/AN/A46 FN/A3150
16/04/1905:3501005N/AN/A30.2548(F), 9(C)43(F), 6(C)81%10+CLRN/AN/AN/A46 FN/A3145
16/04/1905:3002005N/AN/A30.2548(F), 9(C)43(F), 6(C)81%10+CLRN/AN/AN/A46 FN/A3140
16/04/1905:2501005N/AN/A30.2548(F), 9(C)43(F), 6(C)81%10+CLRN/AN/AN/A46 FN/A3135
16/04/1905:2001005N/AN/A30.2548(F), 9(C)43(F), 6(C)81%10+CLRN/AN/AN/A46 FN/A3130
16/04/1905:1502004N/AN/A30.2548(F), 9(C)43(F), 6(C)81%10+CLRN/AN/AN/A48 FN/A3125